Time;durP1;ratioP1;P1;durP2;ratioP2;P2;SDS_P1;SDS_P2;PMS_P1;PMS_P2;Temp;Humidity;BMP_temperature;BMP_pressure;BME280_temperature;BME280_humidity;BME280_pressure;Samples;Min_cycle;Max_cycle;Signal;HPM_P1;HPM_P2
2022/02/22 00:01:10;;;;;;;0.50;0.50;;;;;;;;;;4953099;29;20181;-62
2022/02/22 00:03:36;;;;;;;0.50;0.50;;;;;;;;;;4953280;29;20582;-62
2022/02/22 00:06:03;;;;;;;0.40;0.40;;;;;;;;;;4953409;29;20190;-62
2022/02/22 00:08:29;;;;;;;0.50;0.50;;;;;;;;;;4953265;29;20174;-62
2022/02/22 00:10:56;;;;;;;0.50;0.50;;;;;;;;;;4953111;28;20183;-62
2022/02/22 00:13:23;;;;;;;0.50;0.50;;;;;;;;;;4956492;29;20204;-62
2022/02/22 00:15:49;;;;;;;0.50;0.50;;;;;;;;;;4957107;29;20172;-62
2022/02/22 00:18:15;;;;;;;0.50;0.50;;;;;;;;;;4957044;29;20181;-62
2022/02/22 00:20:41;;;;;;;0.50;0.50;;;;;;;;;;4956729;29;20417;-62
2022/02/22 00:23:07;;;;;;;0.50;0.50;;;;;;;;;;4956647;29;20454;-62
2022/02/22 00:25:33;;;;;;;0.50;0.50;;;;;;;;;;4957026;29;20476;-61
2022/02/22 00:27:59;;;;;;;0.60;0.60;;;;;;;;;;4957122;29;20414;-62
2022/02/22 00:30:26;;;;;;;0.50;0.50;;;;;;;;;;4956766;29;20174;-62
2022/02/22 00:32:52;;;;;;;0.50;0.50;;;;;;;;;;4956708;29;20596;-62
2022/02/22 00:35:18;;;;;;;0.50;0.50;;;;;;;;;;4956942;29;20242;-62
2022/02/22 00:37:44;;;;;;;0.50;0.50;;;;;;;;;;4956637;29;20175;-62
2022/02/22 00:40:11;;;;;;;0.50;0.50;;;;;;;;;;4956508;29;20261;-62
2022/02/22 00:42:37;;;;;;;0.50;0.50;;;;;;;;;;4956484;29;20234;-62
2022/02/22 00:45:04;;;;;;;0.60;0.60;;;;;;;;;;4956467;29;20266;-62
2022/02/22 00:47:29;;;;;;;0.50;0.50;;;;;;;;;;4956435;29;20427;-62
2022/02/22 00:49:55;;;;;;;0.50;0.50;;;;;;;;;;4956285;29;20182;-62
2022/02/22 00:52:21;;;;;;;0.50;0.50;;;;;;;;;;4956050;29;20443;-62
2022/02/22 00:54:47;;;;;;;0.50;0.50;;;;;;;;;;4956222;29;20217;-62
2022/02/22 00:57:13;;;;;;;0.50;0.50;;;;;;;;;;4956110;29;20506;-62
2022/02/22 00:59:39;;;;;;;0.50;0.50;;;;;;;;;;4956187;29;20415;-60
2022/02/22 01:02:05;;;;;;;0.50;0.50;;;;;;;;;;4955889;29;20878;-62
2022/02/22 01:04:31;;;;;;;0.40;0.40;;;;;;;;;;4956097;29;20822;-60
2022/02/22 01:06:57;;;;;;;0.50;0.50;;;;;;;;;;4956027;29;20229;-62
2022/02/22 01:09:23;;;;;;;0.50;0.50;;;;;;;;;;4955999;29;20428;-61
2022/02/22 01:11:49;;;;;;;0.50;0.50;;;;;;;;;;4955661;29;20820;-62
2022/02/22 01:14:16;;;;;;;0.50;0.50;;;;;;;;;;4955896;29;20202;-62
2022/02/22 01:16:42;;;;;;;0.50;0.50;;;;;;;;;;4955851;29;20256;-62
2022/02/22 01:19:08;;;;;;;0.50;0.50;;;;;;;;;;4955777;29;20255;-62
2022/02/22 01:21:34;;;;;;;0.50;0.50;;;;;;;;;;4955536;29;20429;-62
2022/02/22 01:24:00;;;;;;;0.50;0.50;;;;;;;;;;4955504;28;20557;-62
2022/02/22 01:26:27;;;;;;;0.50;0.50;;;;;;;;;;4955740;29;20180;-62
2022/02/22 01:28:53;;;;;;;0.50;0.50;;;;;;;;;;4955661;29;20182;-62
2022/02/22 01:31:19;;;;;;;0.50;0.50;;;;;;;;;;4955296;29;20193;-62
2022/02/22 01:33:45;;;;;;;0.50;0.50;;;;;;;;;;4955330;29;20690;-62
2022/02/22 01:36:11;;;;;;;0.50;0.50;;;;;;;;;;4955521;29;20414;-62
2022/02/22 01:38:37;;;;;;;0.50;0.50;;;;;;;;;;4955569;29;20407;-62
2022/02/22 01:41:03;;;;;;;0.45;0.45;;;;;;;;;;4955179;29;20183;-62
2022/02/22 01:43:29;;;;;;;0.60;0.60;;;;;;;;;;4955446;29;20674;-62
2022/02/22 01:45:55;;;;;;;0.50;0.50;;;;;;;;;;4955301;29;20187;-62
2022/02/22 01:48:21;;;;;;;0.50;0.50;;;;;;;;;;4955262;29;20182;-63
2022/02/22 01:50:47;;;;;;;0.50;0.50;;;;;;;;;;4954976;29;20187;-62
2022/02/22 01:53:15;;;;;;;0.50;0.50;;;;;;;;;;4955249;29;20201;-62
2022/02/22 01:55:42;;;;;;;0.50;0.50;;;;;;;;;;4955070;29;20442;-62
2022/02/22 01:58:08;;;;;;;0.50;0.50;;;;;;;;;;4955205;29;20233;-62
2022/02/22 02:00:34;;;;;;;0.50;0.50;;;;;;;;;;4954831;29;20642;-62
2022/02/22 02:03:00;;;;;;;0.50;0.50;;;;;;;;;;4954925;29;20562;-62
2022/02/22 02:05:26;;;;;;;0.50;0.50;;;;;;;;;;4955039;29;20181;-62
2022/02/22 02:07:53;;;;;;;0.50;0.50;;;;;;;;;;4954519;29;20893;-62
2022/02/22 02:10:19;;;;;;;0.50;0.50;;;;;;;;;;4954638;29;20449;-63
2022/02/22 02:12:45;;;;;;;0.50;0.50;;;;;;;;;;4954795;29;20656;-61
2022/02/22 02:15:11;;;;;;;0.60;0.60;;;;;;;;;;4954617;29;20552;-62
2022/02/22 02:17:37;;;;;;;0.40;0.40;;;;;;;;;;4954729;29;20847;-62
2022/02/22 02:20:07;;;;;;;0.50;0.50;;;;;;;;;;4954621;29;20531;-62
2022/02/22 02:22:35;;;;;;;0.50;0.50;;;;;;;;;;4954605;29;20206;-62
2022/02/22 02:25:01;;;;;;;0.65;0.65;;;;;;;;;;4954569;29;20201;-62
2022/02/22 02:27:27;;;;;;;0.50;0.50;;;;;;;;;;4954542;29;20226;-62
2022/02/22 02:29:55;;;;;;;0.50;0.50;;;;;;;;;;4954387;29;20425;-62
2022/02/22 02:32:22;;;;;;;0.50;0.50;;;;;;;;;;4954264;29;20226;-62
2022/02/22 02:34:47;;;;;;;0.50;0.50;;;;;;;;;;4953741;28;20725;-62
2022/02/22 02:37:13;;;;;;;0.50;0.50;;;;;;;;;;4954407;29;20252;-62
2022/02/22 02:39:40;;;;;;;0.50;0.50;;;;;;;;;;4954286;29;20425;-62
2022/02/22 02:42:06;;;;;;;0.47;0.47;;;;;;;;;;4953925;29;20860;-62
2022/02/22 02:44:32;;;;;;;0.50;0.50;;;;;;;;;;4954400;29;20197;-62
2022/02/22 02:46:57;;;;;;;0.50;0.50;;;;;;;;;;4936919;29;20550;-62
2022/02/22 02:49:24;;;;;;;0.50;0.50;;;;;;;;;;4954116;29;20430;-62
2022/02/22 02:51:50;;;;;;;0.60;0.60;;;;;;;;;;4953954;29;20469;-62
2022/02/22 02:54:16;;;;;;;0.50;0.50;;;;;;;;;;4977211;23;20238;-59
2022/02/22 02:56:42;;;;;;;0.50;0.50;;;;;;;;;;4992703;28;20553;-60
2022/02/22 02:59:09;;;;;;;0.50;0.50;;;;;;;;;;4992812;28;20177;-60
2022/02/22 03:01:36;;;;;;;0.50;0.50;;;;;;;;;;4992447;28;20188;-61
2022/02/22 03:04:02;;;;;;;0.50;0.50;;;;;;;;;;4992569;28;20210;-59
2022/02/22 03:06:28;;;;;;;0.50;0.50;;;;;;;;;;4992553;28;20209;-60
2022/02/22 03:08:54;;;;;;;0.50;0.50;;;;;;;;;;4992542;28;20212;-61
2022/02/22 03:11:20;;;;;;;0.50;0.50;;;;;;;;;;4992221;28;20429;-61
2022/02/22 03:13:46;;;;;;;0.60;0.60;;;;;;;;;;4992273;28;20659;-61
2022/02/22 03:16:13;;;;;;;0.50;0.50;;;;;;;;;;4992414;28;20547;-59
2022/02/22 03:18:39;;;;;;;0.50;0.50;;;;;;;;;;4992354;28;20184;-62
2022/02/22 03:21:05;;;;;;;0.50;0.50;;;;;;;;;;4992050;28;20675;-60
2022/02/22 03:23:31;;;;;;;0.50;0.50;;;;;;;;;;4992353;28;20610;-60
2022/02/22 03:25:57;;;;;;;0.60;0.60;;;;;;;;;;4992196;28;20217;-60
2022/02/22 03:28:23;;;;;;;0.50;0.50;;;;;;;;;;4992232;28;20258;-61
2022/02/22 03:30:50;;;;;;;0.60;0.60;;;;;;;;;;4992068;28;20603;-61
2022/02/22 03:33:16;;;;;;;0.50;0.50;;;;;;;;;;4992152;28;20234;-61
2022/02/22 03:35:42;;;;;;;0.60;0.60;;;;;;;;;;4992088;28;20196;-61
2022/02/22 03:38:09;;;;;;;0.60;0.60;;;;;;;;;;4992216;28;20682;-60
2022/02/22 03:40:35;;;;;;;0.50;0.50;;;;;;;;;;4992089;28;20176;-61
2022/02/22 03:43:01;;;;;;;0.65;0.65;;;;;;;;;;4992102;28;20290;-60
2022/02/22 03:45:27;;;;;;;0.50;0.50;;;;;;;;;;4992286;28;20196;-61
2022/02/22 03:47:55;;;;;;;0.60;0.60;;;;;;;;;;4996153;28;20644;-61
2022/02/22 03:50:21;;;;;;;0.50;0.50;;;;;;;;;;4995922;28;20420;-61
2022/02/22 03:52:47;;;;;;;0.55;0.55;;;;;;;;;;4996133;28;20184;-61
2022/02/22 03:55:13;;;;;;;0.60;0.60;;;;;;;;;;4995846;28;20266;-61
2022/02/22 03:57:39;;;;;;;0.50;0.50;;;;;;;;;;4996008;28;20225;-61
2022/02/22 04:00:08;;;;;;;0.50;0.50;;;;;;;;;;4995929;28;20177;-61
2022/02/22 04:02:35;;;;;;;0.40;0.40;;;;;;;;;;4995909;28;20669;-61
2022/02/22 04:05:01;;;;;;;0.60;0.60;;;;;;;;;;4995985;28;20233;-61
2022/02/22 04:07:28;;;;;;;0.60;0.60;;;;;;;;;;4996046;28;20222;-61
2022/02/22 04:09:54;;;;;;;0.50;0.50;;;;;;;;;;4995759;28;20551;-61
2022/02/22 04:12:20;;;;;;;0.50;0.50;;;;;;;;;;4995563;28;20201;-61
2022/02/22 04:14:46;;;;;;;0.60;0.60;;;;;;;;;;4995517;28;21042;-61
2022/02/22 04:17:12;;;;;;;0.50;0.50;;;;;;;;;;4995576;28;20409;-59
2022/02/22 04:19:38;;;;;;;0.50;0.50;;;;;;;;;;4995559;28;20903;-61
2022/02/22 04:22:04;;;;;;;0.60;0.60;;;;;;;;;;4995364;28;20420;-61
2022/02/22 04:24:30;;;;;;;0.50;0.50;;;;;;;;;;4995466;28;20522;-61
2022/02/22 04:26:56;;;;;;;0.50;0.50;;;;;;;;;;4995606;28;20265;-61
2022/02/22 04:29:22;;;;;;;0.60;0.60;;;;;;;;;;4995501;28;20775;-60
2022/02/22 04:31:48;;;;;;;0.43;0.43;;;;;;;;;;4995084;28;20176;-61
2022/02/22 04:34:14;;;;;;;0.50;0.50;;;;;;;;;;4995308;28;20208;-61
2022/02/22 04:36:40;;;;;;;0.40;0.40;;;;;;;;;;4995392;28;20203;-62
2022/02/22 04:39:06;;;;;;;0.50;0.50;;;;;;;;;;4995318;28;20698;-61
2022/02/22 04:41:32;;;;;;;0.60;0.60;;;;;;;;;;4995036;28;20432;-61
2022/02/22 04:43:58;;;;;;;0.50;0.50;;;;;;;;;;4995222;28;20181;-61
2022/02/22 04:46:24;;;;;;;0.50;0.50;;;;;;;;;;4995155;28;20408;-61
2022/02/22 04:48:50;;;;;;;0.50;0.50;;;;;;;;;;4995329;28;20789;-61
2022/02/22 04:51:16;;;;;;;0.50;0.50;;;;;;;;;;4994816;28;20983;-61
2022/02/22 04:53:42;;;;;;;0.50;0.50;;;;;;;;;;4994966;28;20459;-59
2022/02/22 04:56:08;;;;;;;0.40;0.40;;;;;;;;;;4994878;28;20193;-61
2022/02/22 04:58:34;;;;;;;0.50;0.50;;;;;;;;;;4994340;28;20912;-61
2022/02/22 05:01:00;;;;;;;0.50;0.50;;;;;;;;;;4994577;28;20945;-61
2022/02/22 05:03:26;;;;;;;0.50;0.50;;;;;;;;;;4995078;28;20862;-62
2022/02/22 05:05:53;;;;;;;0.50;0.50;;;;;;;;;;4994740;28;20195;-61
2022/02/22 05:08:19;;;;;;;0.50;0.50;;;;;;;;;;4994862;28;20177;-61
2022/02/22 05:10:45;;;;;;;0.50;0.50;;;;;;;;;;4994415;28;20184;-61
2022/02/22 05:13:11;;;;;;;0.50;0.50;;;;;;;;;;4994611;28;20181;-62
2022/02/22 05:15:37;;;;;;;0.50;0.50;;;;;;;;;;4994517;28;20562;-61
2022/02/22 05:18:04;;;;;;;0.50;0.50;;;;;;;;;;4994543;28;20415;-61
2022/02/22 05:20:30;;;;;;;0.50;0.50;;;;;;;;;;4994496;28;20918;-60
2022/02/22 05:22:56;;;;;;;0.50;0.50;;;;;;;;;;4994530;28;20640;-61
2022/02/22 05:25:22;;;;;;;0.60;0.60;;;;;;;;;;4994314;28;20250;-60
2022/02/22 05:27:48;;;;;;;0.50;0.50;;;;;;;;;;4994405;28;20423;-61
2022/02/22 05:30:15;;;;;;;0.60;0.60;;;;;;;;;;4993965;28;20424;-62
2022/02/22 05:32:41;;;;;;;0.60;0.60;;;;;;;;;;4994584;28;20899;-61
2022/02/22 05:35:07;;;;;;;0.60;0.60;;;;;;;;;;4994238;28;20220;-61
2022/02/22 05:37:34;;;;;;;0.50;0.50;;;;;;;;;;4994188;28;20255;-59
2022/02/22 05:40:00;;;;;;;0.50;0.50;;;;;;;;;;4994165;28;20566;-60
2022/02/22 05:42:28;;;;;;;0.60;0.60;;;;;;;;;;4993986;28;20176;-61
2022/02/22 05:44:55;;;;;;;0.50;0.50;;;;;;;;;;4994453;28;20863;-57
2022/02/22 05:47:21;;;;;;;0.50;0.50;;;;;;;;;;4994054;28;20215;-59
2022/02/22 05:49:47;;;;;;;0.50;0.50;;;;;;;;;;4994034;28;20247;-58
2022/02/22 05:52:13;;;;;;;0.40;0.40;;;;;;;;;;4993746;28;20949;-61
2022/02/22 05:54:39;;;;;;;0.50;0.50;;;;;;;;;;4993661;28;20633;-60
2022/02/22 05:57:05;;;;;;;0.50;0.50;;;;;;;;;;4993781;28;20181;-60
2022/02/22 05:59:32;;;;;;;0.50;0.50;;;;;;;;;;4993779;28;20834;-60
2022/02/22 06:01:58;;;;;;;0.50;0.50;;;;;;;;;;4993492;28;20315;-61
2022/02/22 06:04:26;;;;;;;0.70;0.70;;;;;;;;;;4993345;28;20219;-60
2022/02/22 06:06:52;;;;;;;0.50;0.50;;;;;;;;;;4993801;28;20172;-61
2022/02/22 06:09:17;;;;;;;0.60;0.60;;;;;;;;;;4993519;28;20180;-60
2022/02/22 06:11:43;;;;;;;0.50;0.50;;;;;;;;;;4992196;28;20423;-61
2022/02/22 06:14:09;;;;;;;0.60;0.60;;;;;;;;;;4993067;28;20465;-58
2022/02/22 06:16:35;;;;;;;0.57;0.57;;;;;;;;;;4992784;28;20489;-61
2022/02/22 06:19:01;;;;;;;0.50;0.50;;;;;;;;;;4992657;28;20936;-61
2022/02/22 06:21:27;;;;;;;0.60;0.60;;;;;;;;;;4983600;28;20904;-58
2022/02/22 06:23:53;;;;;;;0.50;0.50;;;;;;;;;;4973778;28;20555;-61
2022/02/22 06:26:19;;;;;;;0.50;0.50;;;;;;;;;;4973906;28;20507;-61
2022/02/22 06:28:46;;;;;;;0.50;0.50;;;;;;;;;;4973857;28;20217;-61
2022/02/22 06:31:12;;;;;;;0.60;0.60;;;;;;;;;;4974544;28;20784;-61
2022/02/22 06:33:38;;;;;;;0.60;0.60;;;;;;;;;;4983709;28;20677;-59
2022/02/22 06:36:04;;;;;;;0.50;0.50;;;;;;;;;;4974888;28;20197;-60
2022/02/22 06:38:30;;;;;;;0.60;0.60;;;;;;;;;;4992185;28;20426;-60
2022/02/22 06:40:56;;;;;;;0.60;0.60;;;;;;;;;;4992761;28;20184;-60
2022/02/22 06:43:22;;;;;;;0.50;0.50;;;;;;;;;;4992577;28;20259;-60
2022/02/22 06:45:49;;;;;;;0.50;0.50;;;;;;;;;;4992703;28;20461;-60
2022/02/22 06:48:15;;;;;;;0.50;0.50;;;;;;;;;;4992770;28;20227;-60
2022/02/22 06:50:42;;;;;;;0.50;0.50;;;;;;;;;;4992554;28;20178;-59
2022/02/22 06:53:08;;;;;;;0.50;0.50;;;;;;;;;;4992792;28;20176;-60
2022/02/22 06:55:34;;;;;;;0.50;0.50;;;;;;;;;;4992496;28;20233;-60
2022/02/22 06:58:03;;;;;;;0.60;0.60;;;;;;;;;;4992731;28;20180;-61
2022/02/22 07:00:30;;;;;;;0.50;0.50;;;;;;;;;;4991776;28;20469;-60
2022/02/22 07:02:56;;;;;;;0.50;0.50;;;;;;;;;;4992451;28;20604;-60
2022/02/22 07:05:22;;;;;;;0.60;0.60;;;;;;;;;;4992660;28;20208;-60
2022/02/22 07:07:49;;;;;;;0.50;0.50;;;;;;;;;;4992355;28;20427;-60
2022/02/22 07:10:16;;;;;;;0.50;0.50;;;;;;;;;;4992320;28;20556;-60
2022/02/22 07:12:43;;;;;;;0.60;0.60;;;;;;;;;;4992156;28;20187;-60
2022/02/22 07:15:09;;;;;;;0.50;0.50;;;;;;;;;;4992097;28;20204;-61
2022/02/22 07:17:48;;;;;;;0.50;0.50;;;;;;;;;;4991732;28;20202;-60
2022/02/22 07:20:15;;;;;;;0.50;0.50;;;;;;;;;;4991356;28;20269;-60
2022/02/22 07:22:41;;;;;;;0.50;0.50;;;;;;;;;;4991926;28;20181;-60
2022/02/22 07:25:08;;;;;;;0.50;0.50;;;;;;;;;;4992043;28;20578;-60
2022/02/22 07:27:34;;;;;;;0.50;0.50;;;;;;;;;;4990446;28;20196;-60
2022/02/22 07:30:00;;;;;;;0.60;0.60;;;;;;;;;;4990518;28;20665;-60
2022/02/22 07:32:26;;;;;;;0.60;0.60;;;;;;;;;;4988385;28;20182;-60
2022/02/22 07:34:52;;;;;;;0.50;0.50;;;;;;;;;;4990972;28;20476;-61
2022/02/22 07:37:18;;;;;;;0.50;0.50;;;;;;;;;;4991982;28;20426;-60
2022/02/22 07:39:44;;;;;;;0.50;0.50;;;;;;;;;;4991834;28;20406;-60
2022/02/22 07:42:10;;;;;;;0.50;0.50;;;;;;;;;;4991788;28;20469;-60
2022/02/22 07:44:36;;;;;;;0.50;0.50;;;;;;;;;;4991920;28;20438;-61
2022/02/22 07:47:02;;;;;;;0.40;0.40;;;;;;;;;;4992034;28;20415;-60
2022/02/22 07:49:28;;;;;;;0.50;0.50;;;;;;;;;;4990005;28;20185;-61
2022/02/22 07:51:54;;;;;;;0.50;0.50;;;;;;;;;;4991621;28;20592;-60
2022/02/22 07:54:20;;;;;;;0.50;0.50;;;;;;;;;;4991486;28;20467;-60
2022/02/22 07:56:46;;;;;;;0.57;0.57;;;;;;;;;;4991497;28;20439;-60
2022/02/22 07:59:12;;;;;;;0.57;0.57;;;;;;;;;;4991974;28;20226;-61
2022/02/22 08:01:38;;;;;;;0.60;0.60;;;;;;;;;;4991698;28;20422;-60
2022/02/22 08:04:04;;;;;;;0.60;0.60;;;;;;;;;;4991861;28;20439;-60
2022/02/22 08:06:30;;;;;;;0.60;0.60;;;;;;;;;;4991847;28;20410;-60
2022/02/22 08:08:56;;;;;;;0.50;0.50;;;;;;;;;;4991911;28;20178;-60
2022/02/22 08:11:22;;;;;;;0.50;0.50;;;;;;;;;;4991588;28;20264;-60
2022/02/22 08:13:48;;;;;;;0.63;0.63;;;;;;;;;;4991591;28;20461;-60
2022/02/22 08:16:14;;;;;;;0.50;0.50;;;;;;;;;;4992047;28;20188;-60
2022/02/22 08:18:40;;;;;;;0.60;0.60;;;;;;;;;;4991767;28;20252;-60
2022/02/22 08:21:06;;;;;;;0.50;0.50;;;;;;;;;;4991796;28;20410;-60
2022/02/22 08:23:32;;;;;;;0.50;0.50;;;;;;;;;;4991005;28;20423;-60
2022/02/22 08:25:59;;;;;;;0.40;0.40;;;;;;;;;;4991745;28;20435;-60
2022/02/22 08:28:25;;;;;;;0.50;0.50;;;;;;;;;;4991731;28;20410;-60
2022/02/22 08:30:51;;;;;;;0.50;0.50;;;;;;;;;;4991500;28;20178;-60
2022/02/22 08:33:17;;;;;;;0.50;0.50;;;;;;;;;;4993027;28;20186;-60
2022/02/22 08:35:43;;;;;;;0.50;0.50;;;;;;;;;;4995290;28;20560;-60
2022/02/22 08:38:09;;;;;;;0.50;0.50;;;;;;;;;;4995451;28;20932;-60
2022/02/22 08:40:35;;;;;;;0.50;0.50;;;;;;;;;;4994994;28;20417;-60
2022/02/22 08:43:01;;;;;;;0.50;0.50;;;;;;;;;;4995268;28;20178;-60
2022/02/22 08:45:27;;;;;;;0.50;0.50;;;;;;;;;;4995033;28;20483;-61
2022/02/22 08:47:53;;;;;;;0.50;0.50;;;;;;;;;;4995163;28;20413;-59
2022/02/22 08:50:20;;;;;;;0.60;0.60;;;;;;;;;;4994751;28;20413;-60
2022/02/22 08:52:46;;;;;;;0.40;0.40;;;;;;;;;;4995064;28;20190;-60
2022/02/22 08:55:13;;;;;;;0.50;0.50;;;;;;;;;;5024741;23;20244;-62
2022/02/22 08:57:39;;;;;;;0.50;0.50;;;;;;;;;;5014695;28;20177;-63
2022/02/22 09:00:10;;;;;;;0.50;0.50;;;;;;;;;;5014124;28;20176;-62
2022/02/22 09:02:39;;;;;;;0.47;0.47;;;;;;;;;;5014671;28;20404;-62
2022/02/22 09:05:06;;;;;;;0.50;0.50;;;;;;;;;;5014239;28;20743;-62
2022/02/22 09:07:32;;;;;;;0.50;0.50;;;;;;;;;;5014473;28;20257;-62
2022/02/22 09:09:58;;;;;;;0.50;0.50;;;;;;;;;;5014624;28;20264;-62
2022/02/22 09:12:24;;;;;;;0.50;0.50;;;;;;;;;;5013852;28;20409;-62
2022/02/22 09:14:50;;;;;;;0.50;0.50;;;;;;;;;;5014234;28;20467;-62
2022/02/22 09:17:16;;;;;;;0.50;0.50;;;;;;;;;;5014165;28;20268;-62
2022/02/22 09:19:42;;;;;;;0.50;0.50;;;;;;;;;;5013807;28;20260;-62
2022/02/22 09:22:08;;;;;;;0.57;0.57;;;;;;;;;;5013626;28;20405;-62
2022/02/22 09:24:34;;;;;;;0.45;0.45;;;;;;;;;;5013337;28;20873;-62
2022/02/22 09:27:00;;;;;;;0.50;0.50;;;;;;;;;;5013704;28;20180;-62
2022/02/22 09:29:26;;;;;;;0.50;0.50;;;;;;;;;;5013948;28;20434;-62
2022/02/22 09:31:52;;;;;;;0.50;0.50;;;;;;;;;;5000168;28;20436;-62
2022/02/22 09:34:18;;;;;;;0.40;0.40;;;;;;;;;;4994122;28;20210;-62
2022/02/22 09:36:44;;;;;;;0.50;0.50;;;;;;;;;;4994027;28;20901;-62
2022/02/22 09:39:10;;;;;;;0.47;0.47;;;;;;;;;;4994171;28;20601;-62
2022/02/22 09:41:36;;;;;;;0.50;0.50;;;;;;;;;;4993930;28;20265;-62
2022/02/22 09:44:02;;;;;;;0.50;0.50;;;;;;;;;;4993962;28;20476;-62
2022/02/22 09:46:30;;;;;;;0.50;0.50;;;;;;;;;;4993960;28;20221;-62
2022/02/22 09:48:56;;;;;;;0.50;0.50;;;;;;;;;;4994108;28;20189;-62
2022/02/22 09:51:22;;;;;;;0.50;0.50;;;;;;;;;;4993585;28;20177;-62
2022/02/22 09:53:48;;;;;;;0.40;0.40;;;;;;;;;;4994062;28;20852;-62
2022/02/22 09:56:14;;;;;;;0.50;0.50;;;;;;;;;;4993806;28;20883;-62
2022/02/22 09:58:40;;;;;;;0.50;0.50;;;;;;;;;;4993830;28;20249;-63
2022/02/22 10:01:06;;;;;;;0.50;0.50;;;;;;;;;;4993527;28;20401;-62
2022/02/22 10:03:32;;;;;;;0.40;0.40;;;;;;;;;;4993903;28;20885;-62
2022/02/22 10:05:59;;;;;;;0.47;0.47;;;;;;;;;;4993723;28;20225;-64
2022/02/22 10:08:32;;;;;;;0.40;0.40;;;;;;;;;;4993875;28;20178;-62
2022/02/22 10:11:06;;;;;;;0.40;0.40;;;;;;;;;;4993544;28;20162;-62
2022/02/22 10:13:32;;;;;;;0.50;0.50;;;;;;;;;;4993592;28;20642;-62
2022/02/22 10:15:58;;;;;;;0.50;0.50;;;;;;;;;;4993475;28;20209;-62
2022/02/22 10:18:25;;;;;;;0.40;0.40;;;;;;;;;;4993489;28;20666;-62
2022/02/22 10:20:51;;;;;;;0.40;0.40;;;;;;;;;;4993349;28;20202;-63
2022/02/22 10:23:30;;;;;;;0.50;0.50;;;;;;;;;;4993499;28;20352;-62
2022/02/22 10:25:57;;;;;;;0.50;0.50;;;;;;;;;;4993366;28;20433;-62
2022/02/22 10:28:23;;;;;;;0.50;0.50;;;;;;;;;;4993298;28;20284;-62
2022/02/22 10:30:51;;;;;;;0.50;0.50;;;;;;;;;;4993163;28;20241;-62
2022/02/22 10:33:19;;;;;;;0.50;0.50;;;;;;;;;;4993304;28;20676;-62
2022/02/22 10:35:48;;;;;;;0.50;0.50;;;;;;;;;;4993154;28;20689;-62
2022/02/22 10:38:16;;;;;;;0.45;0.45;;;;;;;;;;4993134;28;20166;-62
2022/02/22 10:40:43;;;;;;;0.50;0.50;;;;;;;;;;4992859;28;20181;-62
2022/02/22 10:43:20;;;;;;;0.50;0.50;;;;;;;;;;4993345;28;20188;-62
2022/02/22 10:45:50;;;;;;;0.52;0.52;;;;;;;;;;4993027;28;20570;-62
2022/02/22 10:48:25;;;;;;;0.50;0.50;;;;;;;;;;4993039;28;20179;-63
2022/02/22 10:50:52;;;;;;;0.50;0.50;;;;;;;;;;4992781;28;20201;-63
2022/02/22 10:53:18;;;;;;;0.50;0.50;;;;;;;;;;4992859;28;20178;-63
2022/02/22 10:55:45;;;;;;;0.50;0.50;;;;;;;;;;4992175;28;20214;-63
2022/02/22 10:58:11;;;;;;;0.50;0.50;;;;;;;;;;4992761;28;20409;-62
2022/02/22 11:00:37;;;;;;;0.50;0.50;;;;;;;;;;4992336;28;20229;-63
2022/02/22 11:03:03;;;;;;;0.40;0.40;;;;;;;;;;4992645;28;20666;-63
2022/02/22 11:05:30;;;;;;;0.50;0.50;;;;;;;;;;4992715;28;20433;-63
2022/02/22 11:07:56;;;;;;;0.40;0.40;;;;;;;;;;4992547;28;20171;-62
2022/02/22 11:10:27;;;;;;;0.50;0.50;;;;;;;;;;4992330;28;20527;-62
2022/02/22 11:12:55;;;;;;;0.50;0.50;;;;;;;;;;4992655;28;20542;-62
2022/02/22 11:15:31;;;;;;;0.40;0.40;;;;;;;;;;4992516;28;20210;-62
2022/02/22 11:18:02;;;;;;;0.50;0.50;;;;;;;;;;4992546;28;20593;-62
2022/02/22 11:20:30;;;;;;;0.50;0.50;;;;;;;;;;4991678;28;20236;-62
2022/02/22 11:22:57;;;;;;;0.50;0.50;;;;;;;;;;4992616;28;20856;-63
2022/02/22 11:25:50;;;;;;;0.50;0.50;;;;;;;;;;4992293;28;20205;-62
2022/02/22 11:28:16;;;;;;;0.50;0.50;;;;;;;;;;4989265;28;20269;-62
2022/02/22 11:30:42;;;;;;;0.50;0.50;;;;;;;;;;4991881;28;20178;-63
2022/02/22 11:33:12;;;;;;;0.50;0.50;;;;;;;;;;4992335;28;20698;-63
2022/02/22 11:35:56;;;;;;;0.50;0.50;;;;;;;;;;4992650;28;20704;-62
2022/02/22 11:38:22;;;;;;;0.50;0.50;;;;;;;;;;4992299;28;20197;-63
2022/02/22 11:40:52;;;;;;;0.50;0.50;;;;;;;;;;4991785;28;20286;-63
2022/02/22 11:43:19;;;;;;;0.40;0.40;;;;;;;;;;4992123;28;20208;-63
2022/02/22 11:45:47;;;;;;;0.40;0.40;;;;;;;;;;4992120;28;20243;-63
2022/02/22 11:48:20;;;;;;;0.50;0.50;;;;;;;;;;4992180;28;20181;-62
2022/02/22 11:50:48;;;;;;;0.50;0.50;;;;;;;;;;4990044;28;20181;-62
2022/02/22 11:53:19;;;;;;;0.50;0.50;;;;;;;;;;4990614;28;20661;-62
2022/02/22 11:55:46;;;;;;;0.50;0.50;;;;;;;;;;4991815;28;20242;-62
2022/02/22 11:58:13;;;;;;;0.50;0.50;;;;;;;;;;4992218;28;20650;-62
2022/02/22 12:00:40;;;;;;;0.50;0.50;;;;;;;;;;4991385;28;20669;-63
2022/02/22 12:03:13;;;;;;;0.47;0.47;;;;;;;;;;4992434;28;20669;-63
2022/02/22 12:05:44;;;;;;;0.40;0.40;;;;;;;;;;4991524;28;20198;-63
2022/02/22 12:08:21;;;;;;;0.47;0.47;;;;;;;;;;4993379;28;20193;-63
2022/02/22 12:10:48;;;;;;;0.40;0.40;;;;;;;;;;4995843;28;20186;-63
2022/02/22 12:13:16;;;;;;;0.50;0.50;;;;;;;;;;4994027;28;20186;-63
2022/02/22 12:15:42;;;;;;;0.40;0.40;;;;;;;;;;4994773;28;20210;-63
2022/02/22 12:18:14;;;;;;;0.40;0.40;;;;;;;;;;4995789;28;20265;-63
2022/02/22 12:20:40;;;;;;;0.40;0.40;;;;;;;;;;4995395;28;20186;-63
2022/02/22 12:23:06;;;;;;;0.45;0.45;;;;;;;;;;4995144;28;20182;-63
2022/02/22 12:25:33;;;;;;;0.40;0.40;;;;;;;;;;4995413;28;20217;-63
2022/02/22 12:28:01;;;;;;;0.50;0.50;;;;;;;;;;4995741;28;20441;-63
2022/02/22 12:30:30;;;;;;;0.40;0.40;;;;;;;;;;4995396;28;20182;-63
2022/02/22 12:32:56;;;;;;;0.50;0.50;;;;;;;;;;4995490;28;20178;-63
2022/02/22 12:35:35;;;;;;;0.40;0.40;;;;;;;;;;4994823;28;20670;-63
2022/02/22 12:38:23;;;;;;;0.40;0.40;;;;;;;;;;4995283;28;20409;-63
2022/02/22 12:40:49;;;;;;;0.40;0.40;;;;;;;;;;4994945;28;20601;-63
2022/02/22 12:43:16;;;;;;;0.50;0.50;;;;;;;;;;4995262;28;20190;-63
2022/02/22 12:45:49;;;;;;;0.50;0.50;;;;;;;;;;4994506;28;20198;-63
2022/02/22 12:48:15;;;;;;;0.40;0.40;;;;;;;;;;4995137;28;20185;-63
2022/02/22 12:50:41;;;;;;;0.47;0.47;;;;;;;;;;4991298;28;20265;-63
2022/02/22 12:53:08;;;;;;;0.40;0.40;;;;;;;;;;4995105;28;20179;-63
2022/02/22 12:55:46;;;;;;;0.40;0.40;;;;;;;;;;4994866;28;20597;-63
2022/02/22 12:58:12;;;;;;;0.40;0.40;;;;;;;;;;4993563;28;20180;-63
2022/02/22 13:00:38;;;;;;;0.40;0.40;;;;;;;;;;4993832;28;20677;-63
2022/02/22 13:03:12;;;;;;;0.40;0.40;;;;;;;;;;4994871;28;20921;-63
2022/02/22 13:05:39;;;;;;;0.50;0.50;;;;;;;;;;4994840;28;20202;-63
2022/02/22 13:08:05;;;;;;;0.40;0.40;;;;;;;;;;4994258;28;20179;-63
2022/02/22 13:10:39;;;;;;;0.40;0.40;;;;;;;;;;4994456;28;20232;-63
2022/02/22 13:13:05;;;;;;;0.50;0.50;;;;;;;;;;4994446;28;20237;-63
2022/02/22 13:15:31;;;;;;;0.50;0.50;;;;;;;;;;4994471;28;20681;-63
2022/02/22 13:17:57;;;;;;;0.40;0.40;;;;;;;;;;4994665;28;20492;-63
2022/02/22 13:20:23;;;;;;;0.50;0.50;;;;;;;;;;4993416;28;20775;-63
2022/02/22 13:22:49;;;;;;;0.40;0.40;;;;;;;;;;4994515;28;20891;-63
2022/02/22 13:25:16;;;;;;;0.50;0.50;;;;;;;;;;4994029;28;20310;-63
2022/02/22 13:27:43;;;;;;;0.50;0.50;;;;;;;;;;4994408;28;20429;-63
2022/02/22 13:30:11;;;;;;;0.40;0.40;;;;;;;;;;4993892;28;20189;-63
2022/02/22 13:32:37;;;;;;;0.40;0.40;;;;;;;;;;4994259;28;20174;-63
2022/02/22 13:35:13;;;;;;;0.50;0.50;;;;;;;;;;4994109;28;20210;-63
2022/02/22 13:37:42;;;;;;;0.50;0.50;;;;;;;;;;4994056;28;20166;-63
2022/02/22 13:40:10;;;;;;;0.50;0.50;;;;;;;;;;4993953;28;20180;-63
2022/02/22 13:42:37;;;;;;;0.40;0.40;;;;;;;;;;4993849;28;20224;-63
2022/02/22 13:45:04;;;;;;;0.40;0.40;;;;;;;;;;4994046;28;20225;-63
2022/02/22 13:47:30;;;;;;;0.40;0.40;;;;;;;;;;4994235;28;20225;-63
2022/02/22 13:49:56;;;;;;;0.40;0.40;;;;;;;;;;4994079;28;20209;-63
2022/02/22 13:52:22;;;;;;;0.50;0.50;;;;;;;;;;4993767;28;20190;-63
2022/02/22 13:54:49;;;;;;;0.40;0.40;;;;;;;;;;4993743;28;20473;-63
2022/02/22 13:57:15;;;;;;;0.50;0.50;;;;;;;;;;4994234;28;20429;-63
2022/02/22 13:59:42;;;;;;;0.40;0.40;;;;;;;;;;4994251;28;20514;-63
2022/02/22 14:02:09;;;;;;;0.50;0.50;;;;;;;;;;4994317;28;20175;-63
2022/02/22 14:04:35;;;;;;;0.50;0.50;;;;;;;;;;4994179;28;20178;-63
2022/02/22 14:07:05;;;;;;;0.40;0.40;;;;;;;;;;4993971;28;20186;-63
2022/02/22 14:09:32;;;;;;;0.40;0.40;;;;;;;;;;4993944;28;20405;-63
2022/02/22 14:11:58;;;;;;;0.50;0.50;;;;;;;;;;4993703;28;20179;-63
2022/02/22 14:14:24;;;;;;;0.50;0.50;;;;;;;;;;4993551;28;20201;-63
2022/02/22 14:16:50;;;;;;;0.50;0.50;;;;;;;;;;4993732;28;20178;-63
2022/02/22 14:19:16;;;;;;;0.40;0.40;;;;;;;;;;4993754;28;20259;-63
2022/02/22 14:21:42;;;;;;;0.50;0.50;;;;;;;;;;4993390;28;20598;-63
2022/02/22 14:24:09;;;;;;;0.40;0.40;;;;;;;;;;4993685;28;20209;-63
2022/02/22 14:26:35;;;;;;;0.40;0.40;;;;;;;;;;4993662;28;20457;-63
2022/02/22 14:29:01;;;;;;;0.45;0.45;;;;;;;;;;4993406;28;20189;-63
2022/02/22 14:31:27;;;;;;;0.40;0.40;;;;;;;;;;4989465;28;20260;-63
2022/02/22 14:33:53;;;;;;;0.50;0.50;;;;;;;;;;4988413;28;20953;-63
2022/02/22 14:36:23;;;;;;;0.40;0.40;;;;;;;;;;4989305;28;20199;-63
2022/02/22 14:38:50;;;;;;;0.50;0.50;;;;;;;;;;4993318;28;20181;-63
2022/02/22 14:41:16;;;;;;;0.40;0.40;;;;;;;;;;4992979;28;20682;-63